Mantachie, MS (38855)

11:40 PM CDT on July 04, 2015 (GMT -0500)
Deer Park Estates | | Change Station
CLOSE
Current Station
Personal Weather Station
Location: Tupelo, MS
Elevation: 364 ft
Nearby Weather Stations

Elev 364 ft 34.29 °N, 88.66 °W | Updated 19 seconds ago

Clear
Clear
68.5 °F
Feels Like 68.5 °F
N
0.0
Wind Variable Wind from SSE
Gusts 0.0 mph

Today
High -- | Low -- °F
--% Chance of Precip.
Yesterday
High -- | Low -- °F
Precip. -- in
5:46 AM 8:09 PM
Waning Gibbous, 88% visible
Pressure 30.03 in
Visibility 7.0 miles
Clouds Few 2400 ft
Dew Point 68 °F
Humidity 99%
Rainfall 2.35 in
Snow Depth Not available.
UV 0 out of 12
Pollen .50 out of 12
Air Quality Not available.
Flu Activity Not available.
METAR KTUP 050353Z 00000KT 7SM FEW024 22/20 A3004 RMK AO2 SLP168 T02170200

More Conditions Fewer Conditions

Pressure 30.03 in
Visibility 7.0 miles
Clouds Few 2400 ft
Dew Point 68 °F
Humidity 99%
Rainfall 2.35 in
Snow Depth Not available.
UV 0 out of 12
Pollen .50 out of 12
Air Quality Not available.
Flu Activity Not available.
METAR KTUP 050353Z 00000KT 7SM FEW024 22/20 A3004 RMK AO2 SLP168 T02170200

More Conditions Fewer Conditions

10-Day Weather Forecast

×

Almanac

Astronomy

Jul. 04, 2015 Rise Set
Actual Time
Civil Twilight
Nautical Twilight
Astronomical Twilight
Moon
Length of Visible Light
Length of Day
Tomorrow will be .
, % of the Moon is Illuminated

Today's Extremes

State Highs State Lows

Community

WunderPhotos

Upload Photos

1,835,200 photos uploaded!

WunderBlogs® & News

Nearby

Air Quality

  Air Quality AQ Index Pollutant
Not available.

Snow Depth

Station Depth Elevation

Earthquake Activity

City Distance Mag. Time & Date
Minimum magnitude displayed is 2.5.

Coastal Water Temperatures

Place Temperature

Stations

Nearby Weather Stations

Station Location Temp. Windchill Dew Point Humidity Wind Precip. Elev Updated Type